Time;durP1;ratioP1;P1;durP2;ratioP2;P2;SDS_P1;SDS_P2;PMS_P1;PMS_P2;Temp;Humidity;BMP_temperature;BMP_pressure;BME280_temperature;BME280_humidity;BME280_pressure;Samples;Min_cycle;Max_cycle;Signal;HPM_P1;HPM_P2
2022/09/27 00:00:16;;;;;;;;;;;21.00;41.80;;;;;;485178;245;1248;-50
2022/09/27 00:02:18;;;;;;;;;;;21.00;41.80;;;;;;485202;245;1304;-51
2022/09/27 00:04:19;;;;;;;;;;;21.00;41.70;;;;;;485197;245;1290;-51
2022/09/27 00:06:21;;;;;;;;;;;21.00;41.70;;;;;;485484;245;1281;-51
2022/09/27 00:08:22;;;;;;;;;;;21.00;41.70;;;;;;485652;245;2186;-50
2022/09/27 00:10:23;;;;;;;;;;;21.00;41.70;;;;;;485208;245;1209;-50
2022/09/27 00:12:25;;;;;;;;;;;21.00;41.60;;;;;;485653;245;1250;-50
2022/09/27 00:14:26;;;;;;;;;;;21.00;41.60;;;;;;485399;245;1180;-51
2022/09/27 00:16:28;;;;;;;;;;;21.00;41.50;;;;;;485279;245;1260;-50
2022/09/27 00:18:30;;;;;;;;;;;21.00;41.40;;;;;;485704;245;1193;-51
2022/09/27 00:20:30;;;;;;;;;;;21.10;41.50;;;;;;485121;245;2143;-50
2022/09/27 00:22:32;;;;;;;;;;;21.00;41.40;;;;;;485761;245;1280;-50
2022/09/27 00:24:33;;;;;;;;;;;21.00;41.40;;;;;;485319;245;1372;-50
2022/09/27 00:26:34;;;;;;;;;;;21.10;41.40;;;;;;485757;245;1397;-51
2022/09/27 00:28:36;;;;;;;;;;;21.10;41.30;;;;;;485314;245;2156;-51
2022/09/27 00:30:37;;;;;;;;;;;21.10;41.30;;;;;;485275;245;1366;-51
2022/09/27 00:32:38;;;;;;;;;;;21.10;41.30;;;;;;485750;245;1363;-51
2022/09/27 00:34:40;;;;;;;;;;;21.10;41.30;;;;;;485292;245;1353;-50
2022/09/27 00:36:41;;;;;;;;;;;21.10;41.20;;;;;;485744;245;1225;-51
2022/09/27 00:38:42;;;;;;;;;;;21.10;41.20;;;;;;485772;245;1238;-51
2022/09/27 00:40:44;;;;;;;;;;;21.00;41.10;;;;;;485752;245;1297;-51
2022/09/27 00:42:45;;;;;;;;;;;21.10;41.20;;;;;;485773;245;1213;-51
2022/09/27 00:44:46;;;;;;;;;;;21.00;41.00;;;;;;485555;245;1309;-50
2022/09/27 00:46:48;;;;;;;;;;;21.00;41.10;;;;;;485757;245;1209;-50
2022/09/27 00:48:49;;;;;;;;;;;21.10;41.10;;;;;;485361;245;2152;-51
2022/09/27 00:50:50;;;;;;;;;;;21.10;41.00;;;;;;485299;245;1377;-50
2022/09/27 00:52:54;;;;;;;;;;;21.00;41.00;;;;;;485750;245;1238;-50
2022/09/27 00:54:53;;;;;;;;;;;21.00;41.00;;;;;;485640;246;2479;-50
2022/09/27 00:56:54;;;;;;;;;;;21.10;41.00;;;;;;485765;245;1194;-51
2022/09/27 00:58:56;;;;;;;;;;;21.10;40.90;;;;;;485757;245;1198;-50
2022/09/27 01:00:57;;;;;;;;;;;21.10;40.90;;;;;;485370;242;1219;-51
2022/09/27 01:02:59;;;;;;;;;;;21.10;40.90;;;;;;485746;245;1294;-51
2022/09/27 01:05:00;;;;;;;;;;;21.10;40.80;;;;;;485776;245;1425;-50
2022/09/27 01:07:01;;;;;;;;;;;21.10;40.80;;;;;;485785;245;1285;-50
2022/09/27 01:09:03;;;;;;;;;;;21.10;40.70;;;;;;485324;245;2203;-51
2022/09/27 01:11:04;;;;;;;;;;;21.10;40.70;;;;;;485756;245;1313;-50
2022/09/27 01:13:05;;;;;;;;;;;21.10;40.70;;;;;;485479;245;1340;-50
2022/09/27 01:15:07;;;;;;;;;;;21.10;40.70;;;;;;485560;245;1282;-50
2022/09/27 01:17:08;;;;;;;;;;;21.10;40.80;;;;;;485740;245;1263;-51
2022/09/27 01:19:09;;;;;;;;;;;21.10;40.80;;;;;;485621;245;1283;-50
2022/09/27 01:21:11;;;;;;;;;;;21.10;40.80;;;;;;485737;245;1319;-50
2022/09/27 01:23:12;;;;;;;;;;;21.10;40.80;;;;;;485529;245;1395;-50
2022/09/27 01:25:13;;;;;;;;;;;21.10;40.70;;;;;;485279;245;1275;-51
2022/09/27 01:27:15;;;;;;;;;;;21.10;40.70;;;;;;485439;242;1342;-50
2022/09/27 01:29:16;;;;;;;;;;;21.00;40.70;;;;;;485670;245;2195;-51
2022/09/27 01:31:17;;;;;;;;;;;21.10;40.70;;;;;;485358;245;1432;-51
2022/09/27 01:33:19;;;;;;;;;;;21.10;40.60;;;;;;485737;245;1623;-51
2022/09/27 01:35:20;;;;;;;;;;;21.00;40.60;;;;;;485285;245;1288;-50
2022/09/27 01:37:22;;;;;;;;;;;21.00;40.60;;;;;;485613;245;1233;-50
2022/09/27 01:39:23;;;;;;;;;;;21.10;40.60;;;;;;485512;245;1251;-50
2022/09/27 01:41:24;;;;;;;;;;;21.10;40.50;;;;;;485791;245;1336;-50
2022/09/27 01:43:26;;;;;;;;;;;21.00;40.50;;;;;;485376;245;1122;-51
2022/09/27 01:45:27;;;;;;;;;;;21.10;40.60;;;;;;485619;245;1202;-51
2022/09/27 01:47:29;;;;;;;;;;;21.00;40.40;;;;;;485421;245;1198;-50
2022/09/27 01:49:30;;;;;;;;;;;21.10;40.50;;;;;;485787;245;2139;-50
2022/09/27 01:51:32;;;;;;;;;;;21.10;40.40;;;;;;485780;245;1368;-50
2022/09/27 01:53:33;;;;;;;;;;;21.10;40.40;;;;;;485781;245;1253;-51
2022/09/27 01:55:34;;;;;;;;;;;21.10;40.40;;;;;;485389;245;1340;-51
2022/09/27 01:57:35;;;;;;;;;;;21.10;40.40;;;;;;485345;245;1295;-50
2022/09/27 01:59:37;;;;;;;;;;;21.10;40.40;;;;;;485687;245;1148;-50
2022/09/27 02:01:38;;;;;;;;;;;21.10;40.20;;;;;;485341;245;1221;-51
2022/09/27 02:03:39;;;;;;;;;;;21.10;40.20;;;;;;485338;245;1275;-51
2022/09/27 02:05:41;;;;;;;;;;;21.10;40.30;;;;;;485384;245;1082;-50
2022/09/27 02:07:42;;;;;;;;;;;21.10;40.30;;;;;;485323;246;1430;-51
2022/09/27 02:09:44;;;;;;;;;;;21.10;40.20;;;;;;485775;245;2164;-49
2022/09/27 02:11:45;;;;;;;;;;;21.10;40.30;;;;;;485534;245;1305;-51
2022/09/27 02:13:46;;;;;;;;;;;21.10;40.20;;;;;;485761;245;1264;-50
2022/09/27 02:15:47;;;;;;;;;;;21.10;40.10;;;;;;485278;245;1357;-50
2022/09/27 02:17:49;;;;;;;;;;;21.00;40.10;;;;;;485482;245;1264;-51
2022/09/27 02:19:50;;;;;;;;;;;21.10;40.10;;;;;;485313;245;1283;-51
2022/09/27 02:21:51;;;;;;;;;;;21.10;40.10;;;;;;485319;245;1239;-52
2022/09/27 02:23:53;;;;;;;;;;;21.10;40.00;;;;;;485757;245;1700;-51
2022/09/27 02:25:54;;;;;;;;;;;21.10;40.10;;;;;;485752;245;1246;-50
2022/09/27 02:27:56;;;;;;;;;;;21.10;40.20;;;;;;485543;245;1281;-50
2022/09/27 02:29:57;;;;;;;;;;;21.00;40.10;;;;;;485308;245;2153;-50
2022/09/27 02:31:58;;;;;;;;;;;21.10;40.20;;;;;;485393;245;1271;-50
2022/09/27 02:34:00;;;;;;;;;;;21.10;40.20;;;;;;485333;245;1240;-50
2022/09/27 02:36:01;;;;;;;;;;;21.10;40.20;;;;;;485774;245;1177;-50
2022/09/27 02:38:02;;;;;;;;;;;21.10;40.20;;;;;;485799;245;1105;-51
2022/09/27 02:40:04;;;;;;;;;;;21.10;40.20;;;;;;485754;245;1287;-51
2022/09/27 02:42:05;;;;;;;;;;;21.00;40.10;;;;;;485508;245;1207;-50
2022/09/27 02:44:06;;;;;;;;;;;21.00;40.10;;;;;;485756;245;1227;-51
2022/09/27 02:46:08;;;;;;;;;;;21.00;40.00;;;;;;485666;245;1196;-50
2022/09/27 02:48:09;;;;;;;;;;;21.10;40.10;;;;;;485557;242;1354;-50
2022/09/27 02:50:10;;;;;;;;;;;21.10;40.00;;;;;;485526;245;2163;-51
2022/09/27 02:52:12;;;;;;;;;;;21.10;40.00;;;;;;485435;245;1347;-51
2022/09/27 02:54:13;;;;;;;;;;;21.10;40.00;;;;;;485751;245;1243;-51
2022/09/27 02:56:15;;;;;;;;;;;21.10;40.00;;;;;;485563;245;1294;-50
2022/09/27 02:58:16;;;;;;;;;;;21.10;40.00;;;;;;485326;245;1395;-50
2022/09/27 03:00:17;;;;;;;;;;;21.00;39.90;;;;;;485699;245;1182;-50
2022/09/27 03:02:19;;;;;;;;;;;21.10;40.00;;;;;;485450;245;1358;-50
2022/09/27 03:04:22;;;;;;;;;;;21.10;39.90;;;;;;485359;245;1353;-50
2022/09/27 03:06:21;;;;;;;;;;;21.10;39.90;;;;;;485718;245;2258;-50
2022/09/27 03:08:23;;;;;;;;;;;21.10;39.80;;;;;;485816;245;1256;-51
2022/09/27 03:10:24;;;;;;;;;;;21.10;39.80;;;;;;485347;245;2211;-51
2022/09/27 03:12:25;;;;;;;;;;;21.10;39.80;;;;;;485822;245;1125;-51
2022/09/27 03:14:27;;;;;;;;;;;21.10;39.80;;;;;;485802;245;1157;-50
2022/09/27 03:16:28;;;;;;;;;;;21.10;39.80;;;;;;485694;245;1174;-51
2022/09/27 03:18:30;;;;;;;;;;;21.10;39.70;;;;;;485800;245;1270;-50
2022/09/27 03:20:31;;;;;;;;;;;21.10;39.70;;;;;;485386;245;1304;-51
2022/09/27 03:22:32;;;;;;;;;;;21.10;39.70;;;;;;485776;245;1252;-51
2022/09/27 03:24:33;;;;;;;;;;;21.10;39.60;;;;;;485473;245;1405;-51
2022/09/27 03:26:35;;;;;;;;;;;21.10;39.60;;;;;;485786;245;1309;-50
2022/09/27 03:28:36;;;;;;;;;;;21.10;39.60;;;;;;485355;245;1326;-51
2022/09/27 03:30:38;;;;;;;;;;;21.10;39.70;;;;;;485736;245;2199;-51
2022/09/27 03:32:39;;;;;;;;;;;21.10;39.60;;;;;;485469;245;1244;-51
2022/09/27 03:34:40;;;;;;;;;;;21.10;39.60;;;;;;485565;245;1278;-49
2022/09/27 03:36:42;;;;;;;;;;;21.10;39.60;;;;;;485527;245;1381;-51
2022/09/27 03:38:43;;;;;;;;;;;21.00;39.60;;;;;;485797;245;1259;-51
2022/09/27 03:40:44;;;;;;;;;;;21.10;39.80;;;;;;485337;245;1150;-51
2022/09/27 03:42:45;;;;;;;;;;;21.10;39.70;;;;;;485788;245;1290;-51
2022/09/27 03:44:47;;;;;;;;;;;21.10;39.70;;;;;;485332;245;1325;-51
2022/09/27 03:46:48;;;;;;;;;;;21.10;39.70;;;;;;485705;245;1260;-51
2022/09/27 03:48:50;;;;;;;;;;;21.10;39.70;;;;;;485816;245;1224;-50
2022/09/27 03:50:51;;;;;;;;;;;21.10;39.70;;;;;;485648;245;2163;-50
2022/09/27 03:52:53;;;;;;;;;;;21.10;39.70;;;;;;485728;245;1281;-50
2022/09/27 03:54:55;;;;;;;;;;;21.10;39.60;;;;;;485324;245;1207;-50
2022/09/27 03:56:55;;;;;;;;;;;21.10;39.60;;;;;;485306;245;2492;-50
2022/09/27 03:58:57;;;;;;;;;;;21.00;39.60;;;;;;485734;245;1478;-50
2022/09/27 04:00:58;;;;;;;;;;;21.10;39.70;;;;;;485508;245;1302;-51
2022/09/27 04:03:18;;;;;;;;;;;21.10;39.60;;;;;;485361;246;2124;-50
2022/09/27 04:05:19;;;;;;;;;;;21.00;39.70;;;;;;485789;245;1085;-51
2022/09/27 04:07:22;;;;;;;;;;;21.00;39.90;;;;;;485805;245;1294;-50
2022/09/27 04:09:22;;;;;;;;;;;21.00;40.00;;;;;;485719;246;1480;-51
2022/09/27 04:11:23;;;;;;;;;;;21.00;40.20;;;;;;485789;245;2179;-50
2022/09/27 04:13:24;;;;;;;;;;;21.00;40.30;;;;;;485789;245;1176;-51
2022/09/27 04:15:26;;;;;;;;;;;21.00;40.30;;;;;;485284;245;1135;-51
2022/09/27 04:17:27;;;;;;;;;;;21.00;40.50;;;;;;485641;245;1273;-50
2022/09/27 04:19:29;;;;;;;;;;;21.00;40.40;;;;;;485352;245;1198;-51
2022/09/27 04:21:30;;;;;;;;;;;21.00;40.50;;;;;;485402;245;1260;-50
2022/09/27 04:23:32;;;;;;;;;;;21.00;40.60;;;;;;485747;245;1300;-51
2022/09/27 04:25:33;;;;;;;;;;;21.00;40.60;;;;;;485336;245;1600;-51
2022/09/27 04:27:34;;;;;;;;;;;21.00;40.60;;;;;;485357;245;1246;-51
2022/09/27 04:29:36;;;;;;;;;;;21.00;40.70;;;;;;485174;245;2195;-51
2022/09/27 04:31:37;;;;;;;;;;;21.00;40.70;;;;;;485463;245;1270;-51
2022/09/27 04:33:38;;;;;;;;;;;21.00;40.70;;;;;;485052;245;1248;-51
2022/09/27 04:37:59;;;;;;;;;;;21.00;40.80;;;;;;485237;246;1238;-51
2022/09/27 04:40:00;;;;;;;;;;;21.00;40.80;;;;;;485680;245;1257;-50
2022/09/27 04:42:01;;;;;;;;;;;21.00;40.90;;;;;;485235;245;1383;-51
2022/09/27 04:44:03;;;;;;;;;;;21.00;40.80;;;;;;485285;245;1235;-50
2022/09/27 04:46:04;;;;;;;;;;;21.00;40.80;;;;;;485274;245;2066;-51
2022/09/27 04:48:06;;;;;;;;;;;21.00;40.80;;;;;;485230;245;1246;-51
2022/09/27 04:50:07;;;;;;;;;;;21.00;40.90;;;;;;485378;245;2160;-51
2022/09/27 04:52:08;;;;;;;;;;;21.00;40.90;;;;;;485295;245;1176;-50
2022/09/27 04:54:10;;;;;;;;;;;21.00;41.00;;;;;;485680;245;1227;-50
2022/09/27 04:56:11;;;;;;;;;;;21.00;41.00;;;;;;485253;245;1263;-50
2022/09/27 04:58:12;;;;;;;;;;;21.00;41.00;;;;;;485676;245;1287;-50
2022/09/27 05:00:14;;;;;;;;;;;21.00;41.00;;;;;;485342;245;1223;-51
2022/09/27 05:02:15;;;;;;;;;;;21.00;41.10;;;;;;485658;245;1315;-50
2022/09/27 05:04:16;;;;;;;;;;;21.00;41.10;;;;;;485120;245;1291;-50
2022/09/27 05:06:18;;;;;;;;;;;21.00;41.10;;;;;;485487;245;1310;-51
2022/09/27 05:08:19;;;;;;;;;;;21.00;41.10;;;;;;485265;245;1354;-50
2022/09/27 05:10:20;;;;;;;;;;;21.00;41.10;;;;;;485268;245;2176;-50
2022/09/27 05:12:22;;;;;;;;;;;21.00;41.10;;;;;;485237;245;1218;-51
2022/09/27 05:14:23;;;;;;;;;;;21.00;41.20;;;;;;485231;245;1233;-50
2022/09/27 05:16:24;;;;;;;;;;;21.00;41.20;;;;;;485059;245;1224;-51
2022/09/27 05:18:26;;;;;;;;;;;21.00;41.20;;;;;;485242;245;1202;-50
2022/09/27 05:20:27;;;;;;;;;;;21.00;41.20;;;;;;485696;245;1171;-51
2022/09/27 05:22:28;;;;;;;;;;;21.00;41.20;;;;;;485702;245;1149;-51
2022/09/27 05:24:32;;;;;;;;;;;20.90;41.20;;;;;;485323;245;1205;-51
2022/09/27 05:26:31;;;;;;;;;;;20.90;41.30;;;;;;485192;246;2275;-50
2022/09/27 05:28:34;;;;;;;;;;;21.00;41.30;;;;;;484841;245;1219;-51
2022/09/27 05:30:35;;;;;;;;;;;20.90;41.30;;;;;;485003;246;2199;-51
2022/09/27 05:32:35;;;;;;;;;;;21.00;41.30;;;;;;485056;245;2395;-51
2022/09/27 05:34:36;;;;;;;;;;;21.00;41.30;;;;;;485060;245;1292;-51
2022/09/27 05:36:38;;;;;;;;;;;21.00;41.40;;;;;;485218;245;1249;-51
2022/09/27 05:38:40;;;;;;;;;;;21.00;41.40;;;;;;485407;245;1238;-51
2022/09/27 05:40:43;;;;;;;;;;;21.00;41.40;;;;;;485372;246;1464;-51
2022/09/27 05:42:42;;;;;;;;;;;21.00;41.40;;;;;;485136;246;2264;-51
2022/09/27 05:44:47;;;;;;;;;;;21.00;41.40;;;;;;485030;245;1836;-50
2022/09/27 05:46:45;;;;;;;;;;;21.00;41.40;;;;;;485072;245;1996;-51
2022/09/27 05:48:46;;;;;;;;;;;21.00;41.40;;;;;;485518;245;1268;-51
2022/09/27 05:50:48;;;;;;;;;;;20.90;41.40;;;;;;485437;245;2192;-50
2022/09/27 05:52:49;;;;;;;;;;;20.90;41.50;;;;;;485201;245;1283;-51
2022/09/27 05:54:50;;;;;;;;;;;21.00;41.50;;;;;;485091;245;1240;-51
2022/09/27 05:56:52;;;;;;;;;;;21.00;41.50;;;;;;485067;245;1257;-51
2022/09/27 05:58:53;;;;;;;;;;;21.00;41.50;;;;;;485104;245;1324;-50
2022/09/27 06:00:54;;;;;;;;;;;21.00;41.50;;;;;;485322;245;1227;-51
2022/09/27 06:02:56;;;;;;;;;;;21.00;41.50;;;;;;484643;245;1237;-51
2022/09/27 06:04:57;;;;;;;;;;;21.00;41.50;;;;;;484921;245;1220;-51
2022/09/27 06:06:58;;;;;;;;;;;21.00;41.50;;;;;;485376;245;1217;-51
2022/09/27 06:09:01;;;;;;;;;;;21.00;41.60;;;;;;485095;244;1282;-51
2022/09/27 06:11:03;;;;;;;;;;;20.90;41.60;;;;;;485037;246;2192;-51
2022/09/27 06:13:04;;;;;;;;;;;21.00;41.60;;;;;;485147;245;1833;-51
2022/09/27 06:15:05;;;;;;;;;;;21.00;41.60;;;;;;485350;245;1214;-51
2022/09/27 06:17:06;;;;;;;;;;;21.00;41.70;;;;;;485246;245;1328;-51
2022/09/27 06:19:08;;;;;;;;;;;21.00;41.60;;;;;;485262;245;1288;-50
2022/09/27 06:21:09;;;;;;;;;;;21.00;41.60;;;;;;485258;245;1240;-51
2022/09/27 06:23:10;;;;;;;;;;;21.00;41.60;;;;;;485669;245;1254;-51
2022/09/27 06:25:12;;;;;;;;;;;21.00;41.60;;;;;;485033;245;1241;-51
2022/09/27 06:27:13;;;;;;;;;;;21.00;41.70;;;;;;485494;245;1284;-51
2022/09/27 06:29:14;;;;;;;;;;;21.00;41.70;;;;;;485076;245;1290;-50
2022/09/27 06:31:16;;;;;;;;;;;21.00;41.70;;;;;;485158;245;2199;-51
2022/09/27 06:33:18;;;;;;;;;;;21.00;41.70;;;;;;485004;245;1224;-51
2022/09/27 06:35:18;;;;;;;;;;;21.00;41.70;;;;;;484990;246;2482;-50
2022/09/27 06:37:20;;;;;;;;;;;21.00;41.70;;;;;;484881;245;1267;-50
2022/09/27 06:39:21;;;;;;;;;;;21.00;41.80;;;;;;484543;243;1527;-51
2022/09/27 06:41:23;;;;;;;;;;;21.00;41.80;;;;;;484720;245;1174;-51
2022/09/27 06:43:24;;;;;;;;;;;21.00;41.80;;;;;;485505;245;1338;-51
2022/09/27 06:45:26;;;;;;;;;;;21.00;41.80;;;;;;484908;245;1283;-51
2022/09/27 06:47:28;;;;;;;;;;;21.00;41.80;;;;;;484971;245;1417;-51
2022/09/27 06:49:30;;;;;;;;;;;21.00;41.80;;;;;;485015;246;2078;-50
2022/09/27 06:51:29;;;;;;;;;;;21.00;41.90;;;;;;484966;246;2160;-50
2022/09/27 06:53:31;;;;;;;;;;;21.00;41.90;;;;;;485013;245;1210;-51
2022/09/27 06:55:32;;;;;;;;;;;21.00;41.90;;;;;;484982;245;1236;-50
2022/09/27 07:02:12;;;;;;;;;;;21.00;41.90;;;;;;485168;246;1270;-51
2022/09/27 07:04:14;;;;;;;;;;;21.00;41.90;;;;;;484724;245;1276;-51
2022/09/27 07:06:14;;;;;;;;;;;21.00;42.00;;;;;;484986;245;2190;-51
2022/09/27 07:08:15;;;;;;;;;;;21.00;42.00;;;;;;485328;245;1297;-51
2022/09/27 07:10:17;;;;;;;;;;;21.00;41.90;;;;;;485034;245;1273;-51
2022/09/27 07:12:23;;;;;;;;;;;21.00;42.00;;;;;;485221;245;2186;-51
2022/09/27 07:14:20;;;;;;;;;;;21.00;42.00;;;;;;484801;246;2419;-50
2022/09/27 07:16:21;;;;;;;;;;;21.00;42.00;;;;;;485067;245;1219;-51
2022/09/27 07:18:23;;;;;;;;;;;21.00;42.00;;;;;;485038;245;1193;-51
2022/09/27 07:20:24;;;;;;;;;;;21.00;42.10;;;;;;484607;245;1231;-50
2022/09/27 07:22:26;;;;;;;;;;;21.00;42.00;;;;;;484948;245;1305;-51
2022/09/27 07:24:27;;;;;;;;;;;21.00;42.00;;;;;;484941;245;1271;-51
2022/09/27 07:26:28;;;;;;;;;;;21.00;42.00;;;;;;484625;245;1637;-50
2022/09/27 07:28:30;;;;;;;;;;;21.00;42.00;;;;;;485120;245;1254;-51
2022/09/27 07:30:31;;;;;;;;;;;21.00;42.10;;;;;;484747;245;1244;-51
2022/09/27 07:32:34;;;;;;;;;;;21.00;42.10;;;;;;484640;245;2186;-51
2022/09/27 07:34:34;;;;;;;;;;;21.00;42.10;;;;;;484468;246;2067;-50
2022/09/27 07:36:35;;;;;;;;;;;21.00;42.10;;;;;;484774;245;1217;-50
2022/09/27 07:38:36;;;;;;;;;;;21.00;42.10;;;;;;485011;245;1481;-51
2022/09/27 07:40:38;;;;;;;;;;;21.00;42.10;;;;;;485276;245;1148;-51
2022/09/27 07:42:40;;;;;;;;;;;21.00;42.10;;;;;;484843;245;1334;-51
2022/09/27 07:44:41;;;;;;;;;;;21.00;42.10;;;;;;484966;245;1223;-50
2022/09/27 07:46:42;;;;;;;;;;;21.10;42.20;;;;;;484908;245;1243;-51
2022/09/27 07:48:45;;;;;;;;;;;21.10;42.20;;;;;;484991;245;1216;-50
2022/09/27 07:50:46;;;;;;;;;;;21.10;42.10;;;;;;484870;245;2748;-52
2022/09/27 07:52:46;;;;;;;;;;;21.10;42.20;;;;;;484934;246;1478;-51
2022/09/27 07:54:47;;;;;;;;;;;21.10;42.20;;;;;;484937;245;1237;-51
2022/09/27 07:56:49;;;;;;;;;;;21.00;42.20;;;;;;485094;245;1186;-50
2022/09/27 07:58:50;;;;;;;;;;;21.00;42.20;;;;;;484916;245;1262;-50
2022/09/27 08:00:53;;;;;;;;;;;21.00;42.20;;;;;;484817;245;1217;-51
2022/09/27 08:02:53;;;;;;;;;;;21.00;42.20;;;;;;484619;245;2195;-49
2022/09/27 08:04:54;;;;;;;;;;;21.00;42.30;;;;;;484778;245;1174;-50
2022/09/27 08:06:56;;;;;;;;;;;21.00;42.30;;;;;;484609;245;1300;-51
2022/09/27 08:08:58;;;;;;;;;;;21.00;42.30;;;;;;484667;245;1331;-51
2022/09/27 08:10:59;;;;;;;;;;;21.10;42.30;;;;;;484817;245;2187;-51
2022/09/27 08:13:01;;;;;;;;;;;21.10;42.30;;;;;;484887;245;1226;-51
2022/09/27 08:15:03;;;;;;;;;;;21.00;42.30;;;;;;484644;245;1758;-50
2022/09/27 08:17:03;;;;;;;;;;;21.10;42.40;;;;;;484749;245;1864;-50
2022/09/27 08:19:04;;;;;;;;;;;21.10;42.30;;;;;;484769;245;1239;-51
2022/09/27 08:21:05;;;;;;;;;;;21.10;42.30;;;;;;485046;245;1234;-50
2022/09/27 08:23:07;;;;;;;;;;;21.10;42.30;;;;;;484857;245;1271;-50
2022/09/27 08:25:08;;;;;;;;;;;21.10;42.40;;;;;;484914;245;1318;-51
2022/09/27 08:27:10;;;;;;;;;;;21.10;42.40;;;;;;484813;245;1269;-51
2022/09/27 08:29:12;;;;;;;;;;;21.10;42.40;;;;;;484777;245;1180;-50
2022/09/27 08:31:13;;;;;;;;;;;21.10;42.40;;;;;;484863;245;2203;-51
2022/09/27 08:33:14;;;;;;;;;;;21.10;42.40;;;;;;484603;245;1235;-49
2022/09/27 08:35:16;;;;;;;;;;;21.10;42.40;;;;;;484818;245;1313;-50
2022/09/27 08:37:17;;;;;;;;;;;21.10;42.40;;;;;;484888;245;1203;-51
2022/09/27 08:39:19;;;;;;;;;;;21.10;42.40;;;;;;484935;245;1292;-51
2022/09/27 08:41:20;;;;;;;;;;;21.10;42.50;;;;;;484929;245;1195;-50
2022/09/27 08:43:21;;;;;;;;;;;21.10;42.50;;;;;;485172;245;1214;-51
2022/09/27 08:45:22;;;;;;;;;;;21.10;42.50;;;;;;484342;245;1196;-51
2022/09/27 08:47:24;;;;;;;;;;;21.10;42.60;;;;;;484622;245;1174;-50
2022/09/27 08:49:25;;;;;;;;;;;21.00;42.50;;;;;;484734;246;1338;-50
2022/09/27 08:51:27;;;;;;;;;;;21.10;42.60;;;;;;484795;245;2183;-51
2022/09/27 08:53:30;;;;;;;;;;;21.10;42.50;;;;;;484650;245;1206;-51
2022/09/27 08:55:30;;;;;;;;;;;21.10;42.60;;;;;;484290;246;1991;-50
2022/09/27 08:57:31;;;;;;;;;;;21.10;42.60;;;;;;484620;245;1112;-51
2022/09/27 08:59:32;;;;;;;;;;;21.10;42.60;;;;;;484922;245;1183;-50
2022/09/27 09:01:34;;;;;;;;;;;21.10;42.60;;;;;;484883;245;1152;-50
2022/09/27 09:03:35;;;;;;;;;;;21.10;42.60;;;;;;484793;245;1088;-51
2022/09/27 09:05:37;;;;;;;;;;;21.10;42.50;;;;;;484922;245;1251;-51
2022/09/27 09:07:38;;;;;;;;;;;21.10;42.40;;;;;;484869;245;1325;-50
2022/09/27 09:09:39;;;;;;;;;;;21.10;42.40;;;;;;485005;245;1475;-51
2022/09/27 09:14:00;;;;;;;;;;;21.00;42.20;;;;;;485260;246;1341;-51
2022/09/27 09:16:01;;;;;;;;;;;21.10;42.20;;;;;;484971;245;1221;-50
2022/09/27 09:18:03;;;;;;;;;;;21.10;42.20;;;;;;484839;245;1201;-51
2022/09/27 09:20:04;;;;;;;;;;;21.10;42.20;;;;;;484787;246;2731;-51
2022/09/27 09:22:05;;;;;;;;;;;21.10;42.20;;;;;;484948;245;1302;-51
2022/09/27 09:24:06;;;;;;;;;;;21.10;42.10;;;;;;484816;245;1299;-50
2022/09/27 09:26:08;;;;;;;;;;;21.10;42.00;;;;;;484889;245;1203;-51
2022/09/27 09:28:09;;;;;;;;;;;21.10;42.00;;;;;;484794;245;1328;-51
2022/09/27 09:30:10;;;;;;;;;;;21.10;42.00;;;;;;484845;245;1275;-50
2022/09/27 09:32:12;;;;;;;;;;;21.20;41.90;;;;;;484737;245;2160;-50
2022/09/27 09:34:14;;;;;;;;;;;21.20;41.80;;;;;;484688;245;1211;-51
2022/09/27 09:36:15;;;;;;;;;;;21.20;41.80;;;;;;484966;245;1301;-51
2022/09/27 09:38:16;;;;;;;;;;;21.20;41.80;;;;;;484876;245;1261;-50
2022/09/27 09:40:17;;;;;;;;;;;21.10;41.70;;;;;;485107;245;1266;-50
2022/09/27 09:42:19;;;;;;;;;;;21.20;41.70;;;;;;485295;245;1233;-50
2022/09/27 09:44:20;;;;;;;;;;;21.10;41.70;;;;;;485033;245;1234;-51
2022/09/27 09:46:21;;;;;;;;;;;21.20;41.70;;;;;;484971;245;1268;-51
2022/09/27 09:48:23;;;;;;;;;;;21.20;41.60;;;;;;485042;246;1381;-51
2022/09/27 09:50:25;;;;;;;;;;;21.20;41.60;;;;;;485172;245;1456;-50
2022/09/27 09:52:26;;;;;;;;;;;21.20;41.60;;;;;;485018;245;2196;-51
2022/09/27 09:54:28;;;;;;;;;;;21.20;41.50;;;;;;485016;245;1280;-51
2022/09/27 09:56:30;;;;;;;;;;;21.20;41.50;;;;;;485116;245;1279;-51
2022/09/27 09:58:32;;;;;;;;;;;21.20;41.40;;;;;;484926;245;1260;-51
2022/09/27 10:00:32;;;;;;;;;;;21.20;41.40;;;;;;484849;246;2246;-51
2022/09/27 10:02:33;;;;;;;;;;;21.20;41.40;;;;;;485031;245;1238;-50
2022/09/27 10:04:35;;;;;;;;;;;21.20;41.30;;;;;;484958;245;1582;-50
2022/09/27 10:06:36;;;;;;;;;;;21.20;41.20;;;;;;485476;245;1574;-51
2022/09/27 10:08:37;;;;;;;;;;;21.20;41.30;;;;;;485074;245;1294;-50
2022/09/27 10:10:39;;;;;;;;;;;21.20;41.10;;;;;;485080;245;1228;-50
2022/09/27 10:12:40;;;;;;;;;;;21.20;41.20;;;;;;485071;245;2188;-51
2022/09/27 10:14:41;;;;;;;;;;;21.20;41.10;;;;;;485005;245;1170;-51
2022/09/27 10:16:44;;;;;;;;;;;21.20;41.10;;;;;;485439;245;1242;-51
2022/09/27 10:18:44;;;;;;;;;;;21.20;41.10;;;;;;485103;246;2269;-51
2022/09/27 10:20:45;;;;;;;;;;;21.30;41.00;;;;;;485435;245;1192;-51
2022/09/27 10:22:47;;;;;;;;;;;21.30;41.00;;;;;;485424;245;1177;-50
2022/09/27 10:24:48;;;;;;;;;;;21.30;40.90;;;;;;485123;245;1094;-50
2022/09/27 10:26:50;;;;;;;;;;;21.30;40.80;;;;;;485617;245;1183;-51
2022/09/27 10:28:51;;;;;;;;;;;21.30;40.80;;;;;;485374;245;1957;-50
2022/09/27 10:30:52;;;;;;;;;;;21.30;40.70;;;;;;485244;245;1129;-50
2022/09/27 10:32:55;;;;;;;;;;;21.30;40.80;;;;;;484943;245;2192;-51
2022/09/27 10:34:55;;;;;;;;;;;21.30;40.70;;;;;;485260;245;1852;-51
2022/09/27 10:36:56;;;;;;;;;;;21.30;40.70;;;;;;485096;245;1303;-51
2022/09/27 10:38:59;;;;;;;;;;;21.30;40.60;;;;;;485023;245;1233;-51
2022/09/27 10:40:59;;;;;;;;;;;21.30;40.60;;;;;;485030;246;2563;-51
2022/09/27 10:43:00;;;;;;;;;;;21.30;40.60;;;;;;485499;245;1347;-51
2022/09/27 10:45:02;;;;;;;;;;;21.30;40.70;;;;;;485042;245;1233;-50
2022/09/27 10:47:03;;;;;;;;;;;21.30;40.70;;;;;;485036;245;1293;-50
2022/09/27 10:49:05;;;;;;;;;;;21.30;40.60;;;;;;485039;245;1231;-49
2022/09/27 10:51:06;;;;;;;;;;;21.30;40.70;;;;;;484924;245;1290;-50
2022/09/27 10:53:08;;;;;;;;;;;21.30;40.60;;;;;;485111;245;2140;-49
2022/09/27 10:55:09;;;;;;;;;;;21.30;40.60;;;;;;485056;245;1245;-50
2022/09/27 10:57:10;;;;;;;;;;;21.30;40.50;;;;;;485028;245;1332;-50
2022/09/27 10:59:11;;;;;;;;;;;21.30;40.50;;;;;;485420;245;1276;-50
2022/09/27 11:01:13;;;;;;;;;;;21.30;40.50;;;;;;485086;245;1264;-50
2022/09/27 11:03:14;;;;;;;;;;;21.30;40.50;;;;;;484784;245;1154;-51
2022/09/27 11:05:16;;;;;;;;;;;21.30;40.50;;;;;;484944;245;1223;-51
2022/09/27 11:07:18;;;;;;;;;;;21.30;40.40;;;;;;484470;246;2363;-51
2022/09/27 11:09:19;;;;;;;;;;;21.30;40.40;;;;;;484986;245;2418;-50
2022/09/27 11:11:21;;;;;;;;;;;21.30;40.30;;;;;;484905;243;1269;-50
2022/09/27 11:13:22;;;;;;;;;;;21.30;40.30;;;;;;485177;245;2195;-50
2022/09/27 11:15:24;;;;;;;;;;;21.30;40.30;;;;;;484759;245;1315;-51
2022/09/27 11:17:25;;;;;;;;;;;21.30;40.20;;;;;;485005;245;1243;-50
2022/09/27 11:19:26;;;;;;;;;;;21.30;40.20;;;;;;484741;245;1233;-52
2022/09/27 11:21:28;;;;;;;;;;;21.30;40.30;;;;;;485076;245;1152;-51
2022/09/27 11:23:29;;;;;;;;;;;21.30;40.20;;;;;;484861;245;1465;-50
2022/09/27 11:25:30;;;;;;;;;;;21.30;40.20;;;;;;485023;245;1210;-51
2022/09/27 11:27:31;;;;;;;;;;;21.30;40.10;;;;;;484973;245;1712;-50
2022/09/27 11:29:33;;;;;;;;;;;21.30;40.10;;;;;;485077;245;1259;-50
2022/09/27 11:31:34;;;;;;;;;;;21.30;40.10;;;;;;485081;245;1217;-51
2022/09/27 11:33:36;;;;;;;;;;;21.40;40.10;;;;;;484916;245;2167;-50
2022/09/27 11:35:37;;;;;;;;;;;21.30;40.10;;;;;;484819;245;1325;-51
2022/09/27 11:37:38;;;;;;;;;;;21.30;40.10;;;;;;485269;245;1505;-50
2022/09/27 11:39:40;;;;;;;;;;;21.30;40.00;;;;;;484945;245;1200;-51
2022/09/27 11:41:41;;;;;;;;;;;21.30;40.00;;;;;;485015;245;1339;-51
2022/09/27 11:43:42;;;;;;;;;;;21.40;40.10;;;;;;484995;245;1193;-51
2022/09/27 11:45:44;;;;;;;;;;;21.30;40.00;;;;;;485086;245;1207;-51
2022/09/27 11:47:46;;;;;;;;;;;21.40;39.90;;;;;;485099;245;1341;-51
2022/09/27 11:49:47;;;;;;;;;;;21.40;40.00;;;;;;485119;245;1222;-50
2022/09/27 11:51:48;;;;;;;;;;;21.40;39.90;;;;;;484978;245;1167;-51
2022/09/27 11:53:50;;;;;;;;;;;21.30;39.80;;;;;;485001;245;2195;-51
2022/09/27 11:55:51;;;;;;;;;;;21.40;39.80;;;;;;484953;245;1178;-50
2022/09/27 11:57:52;;;;;;;;;;;21.40;39.80;;;;;;484562;246;1260;-51
2022/09/27 11:59:54;;;;;;;;;;;21.40;39.80;;;;;;503350;237;1263;-51
2022/09/27 12:01:55;;;;;;;;;;;21.40;39.80;;;;;;503214;237;1203;-50
2022/09/27 12:03:57;;;;;;;;;;;21.40;39.90;;;;;;479967;247;1322;-51
2022/09/27 12:05:58;;;;;;;;;;;21.40;39.90;;;;;;488798;243;1194;-51